-16°C Temp
'.PHP_EOL;
-19°C Dewpoint
78% Humidity
Temperature
29 KM/H
18 MPH
16 KTS
350°
Due North

Wind
Light Snow Low drifting Snow
Pressure 1027.1 (hPa)- 30.04 (in)
Visibility 4 (mi) - 6.4 (km)

Current Conditions
CYYC
Location Calgary International 14(km)
Metar:
CYYC 170500Z 35016KT 4SM -SN DRSN FEW013 BKN025 OVC059 M16/M19 A3004 RMK SC2SC3SC3 SLP271

Warning: gmmktime() expects parameter 1 to be long, string given in /home/weathert/public_html/wd34/pwsWD/metar_popup.php on line 288
Wed 31st December 17:00 pm

Airport
  Metar Aviation API Data Provided by https://www.checkwx.com/ Icons created by weather34.com